Aviation Digital Data Service (ADDS)

Output produced by METARs form (1515 UTC 20 November 2018)
found at http://www.aviationweather.gov/metar/data/
 
METAR text: KSBA 201453Z 00000KT 5SM BR CLR 09/08 A3001 RMK AO2 SLP160 T00890078 53004 $
Conditions at: KSBA (SANTA BARBARA , CA, US) observed 1453 UTC 20 November 2018
Temperature: 8.9°C (48°F)
Dewpoint: 7.8°C (46°F) [RH = 93%]
Pressure (altimeter): 30.01 inches Hg (1016.3 mb)
[Sea-level pressure: 1016.0 mb]
Winds: calm
Visibility: 5 miles ( 8 km)
Ceiling: at least 12,000 feet AGL
Clouds: sky clear below 12,000 feet AGL
Weather: BR  (mist)
SOME DATA ABOVE MAY BE INACCURATE!!!
"$" is an indication the sensor requires maintenance

METAR text: KSBA 201353Z 00000KT 7SM CLR 08/07 A2999 RMK AO2 SLP156 T00830072 $
Conditions at: KSBA (SANTA BARBARA , CA, US) observed 1353 UTC 20 November 2018
Temperature: 8.3°C (47°F)
Dewpoint: 7.2°C (45°F) [RH = 93%]
Pressure (altimeter): 29.99 inches Hg (1015.7 mb)
[Sea-level pressure: 1015.6 mb]
Winds: calm
Visibility: 7 miles (11 km)
Ceiling: at least 12,000 feet AGL
Clouds: sky clear below 12,000 feet AGL
Weather:
SOME DATA ABOVE MAY BE INACCURATE!!!
"$" is an indication the sensor requires maintenance

METAR text: KSBA 201253Z 00000KT 9SM CLR 10/08 A2998 RMK AO2 SLP152 T01000083 $
Conditions at: KSBA (SANTA BARBARA , CA, US) observed 1253 UTC 20 November 2018
Temperature: 10.0°C (50°F)
Dewpoint: 8.3°C (47°F) [RH = 89%]
Pressure (altimeter): 29.98 inches Hg (1015.3 mb)
[Sea-level pressure: 1015.2 mb]
Winds: calm
Visibility: 9 miles (14 km)
Ceiling: at least 12,000 feet AGL
Clouds: sky clear below 12,000 feet AGL
Weather:
SOME DATA ABOVE MAY BE INACCURATE!!!
"$" is an indication the sensor requires maintenance

METAR text: KSBA 201217Z 05003KT 9SM SCT016 09/08 A2999 RMK AO2 T00940078 $
Conditions at: KSBA (SANTA BARBARA , CA, US) observed 1217 UTC 20 November 2018
Temperature: 9.4°C (49°F)
Dewpoint: 7.8°C (46°F) [RH = 90%]
Pressure (altimeter): 29.99 inches Hg (1015.7 mb)
Winds: from the NE (50 degrees) at 3 MPH (3 knots; 1.5 m/s)
Visibility: 9 miles (14 km)
Ceiling: at least 12,000 feet AGL
Clouds: scattered clouds at 1600 feet AGL
Weather:
SOME DATA ABOVE MAY BE INACCURATE!!!
"$" is an indication the sensor requires maintenance

METAR text: KSBA 201153Z 00000KT 9SM OVC016 09/08 A2999 RMK AO2 SLP156 T00940078 10111 20061 52001 $
Conditions at: KSBA (SANTA BARBARA , CA, US) observed 1153 UTC 20 November 2018
Temperature: 9.4°C (49°F)
Dewpoint: 7.8°C (46°F) [RH = 90%]
Pressure (altimeter): 29.99 inches Hg (1015.7 mb)
[Sea-level pressure: 1015.6 mb]
Winds: calm
Visibility: 9 miles (14 km)
Ceiling: 1600 feet AGL
Clouds: overcast cloud deck at 1600 feet AGL
Weather:
SOME DATA ABOVE MAY BE INACCURATE!!!
"$" is an indication the sensor requires maintenance

METAR text: KSBA 201148Z 06003KT 9SM OVC016 09/08 A2999 RMK AO2 $
Conditions at: KSBA (SANTA BARBARA , CA, US) observed 1148 UTC 20 November 2018
Temperature: 9.0°C (48°F)
Dewpoint: 8.0°C (46°F) [RH = 93%]
Pressure (altimeter): 29.99 inches Hg (1015.7 mb)
Winds: from the ENE (60 degrees) at 3 MPH (3 knots; 1.5 m/s)
Visibility: 9 miles (14 km)
Ceiling: 1600 feet AGL
Clouds: overcast cloud deck at 1600 feet AGL
Weather:
SOME DATA ABOVE MAY BE INACCURATE!!!
"$" is an indication the sensor requires maintenance

METAR text: KSBA 201114Z 06004KT 6SM BR BKN013 08/07 A2999 RMK AO2 T00780072 $
Conditions at: KSBA (SANTA BARBARA , CA, US) observed 1114 UTC 20 November 2018
Temperature: 7.8°C (46°F)
Dewpoint: 7.2°C (45°F) [RH = 96%]
Pressure (altimeter): 29.99 inches Hg (1015.7 mb)
Winds: from the ENE (60 degrees) at 5 MPH (4 knots; 2.1 m/s)
Visibility: 6 miles (10 km)
Ceiling: 1300 feet AGL
Clouds: broken clouds at 1300 feet AGL
Weather: BR  (mist)
SOME DATA ABOVE MAY BE INACCURATE!!!
"$" is an indication the sensor requires maintenance

METAR text: KSBA 201053Z 30003KT 4SM BR CLR 08/08 A2999 RMK AO2 SLP155 T00830078 $
Conditions at: KSBA (SANTA BARBARA , CA, US) observed 1053 UTC 20 November 2018
Temperature: 8.3°C (47°F)
Dewpoint: 7.8°C (46°F) [RH = 97%]
Pressure (altimeter): 29.99 inches Hg (1015.7 mb)
[Sea-level pressure: 1015.5 mb]
Winds: from the WNW (300 degrees) at 3 MPH (3 knots; 1.5 m/s)
Visibility: 4 miles ( 6 km)
Ceiling: at least 12,000 feet AGL
Clouds: sky clear below 12,000 feet AGL
Weather: BR  (mist)
SOME DATA ABOVE MAY BE INACCURATE!!!
"$" is an indication the sensor requires maintenance

METAR text: KSBA 201033Z 30003KT 3SM BR CLR 06/06 A2999 RMK AO2 T00610061 $
Conditions at: KSBA (SANTA BARBARA , CA, US) observed 1033 UTC 20 November 2018
Temperature: 6.1°C (43°F)
Dewpoint: 6.1°C (43°F) [RH = 100%]
Pressure (altimeter): 29.99 inches Hg (1015.7 mb)
Winds: from the WNW (300 degrees) at 3 MPH (3 knots; 1.5 m/s)
Visibility: 3 miles ( 5 km)
Ceiling: at least 12,000 feet AGL
Clouds: sky clear below 12,000 feet AGL
Weather: BR  (mist)
SOME DATA ABOVE MAY BE INACCURATE!!!
"$" is an indication the sensor requires maintenance

METAR text: KSBA 201021Z 00000KT 1 1/2SM BR CLR 08/07 A2999 RMK AO2 VIS 1/2V5 T00780072 $
Conditions at: KSBA (SANTA BARBARA , CA, US) observed 1021 UTC 20 November 2018
Temperature: 7.8°C (46°F)
Dewpoint: 7.2°C (45°F) [RH = 96%]
Pressure (altimeter): 29.99 inches Hg (1015.7 mb)
Winds: calm
Visibility: 1.50 miles (2.41 km)
Ceiling: at least 12,000 feet AGL
Clouds: sky clear below 12,000 feet AGL
Weather: BR  (mist)
SOME DATA ABOVE MAY BE INACCURATE!!!
"$" is an indication the sensor requires maintenance

METAR text: KSBA 200953Z 00000KT 5SM BR CLR 09/08 A2999 RMK AO2 SLP155 T00890083 $
Conditions at: KSBA (SANTA BARBARA , CA, US) observed 0953 UTC 20 November 2018
Temperature: 8.9°C (48°F)
Dewpoint: 8.3°C (47°F) [RH = 96%]
Pressure (altimeter): 29.99 inches Hg (1015.7 mb)
[Sea-level pressure: 1015.5 mb]
Winds: calm
Visibility: 5 miles ( 8 km)
Ceiling: at least 12,000 feet AGL
Clouds: sky clear below 12,000 feet AGL
Weather: BR  (mist)
SOME DATA ABOVE MAY BE INACCURATE!!!
"$" is an indication the sensor requires maintenance

METAR text: KSBA 200853Z 00000KT 6SM BR CLR 09/08 A3000 RMK AO2 SLP158 T00940083 56006 $
Conditions at: KSBA (SANTA BARBARA , CA, US) observed 0853 UTC 20 November 2018
Temperature: 9.4°C (49°F)
Dewpoint: 8.3°C (47°F) [RH = 93%]
Pressure (altimeter): 30.00 inches Hg (1016.0 mb)
[Sea-level pressure: 1015.8 mb]
Winds: calm
Visibility: 6 miles (10 km)
Ceiling: at least 12,000 feet AGL
Clouds: sky clear below 12,000 feet AGL
Weather: BR  (mist)
SOME DATA ABOVE MAY BE INACCURATE!!!
"$" is an indication the sensor requires maintenance

METAR text: KSBA 200753Z 00000KT 6SM BR CLR 08/08 A3000 RMK AO2 SLP160 T00830078 401890078 $
Conditions at: KSBA (SANTA BARBARA , CA, US) observed 0753 UTC 20 November 2018
Temperature: 8.3°C (47°F)
Dewpoint: 7.8°C (46°F) [RH = 97%]
Pressure (altimeter): 30.00 inches Hg (1016.0 mb)
[Sea-level pressure: 1016.0 mb]
Winds: calm
Visibility: 6 miles (10 km)
Ceiling: at least 12,000 feet AGL
Clouds: sky clear below 12,000 feet AGL
Weather: BR  (mist)
SOME DATA ABOVE MAY BE INACCURATE!!!
"$" is an indication the sensor requires maintenance

Forecast for: KSBA (SANTA BARBARA , CA, US)
Text: KSBA 201310Z 2013/2112 VRB03KT P6SM SKC
Forecast period: 1300 to 1600 UTC 20 November 2018
Forecast type: FROM: standard forecast or significant change
Winds: variable direction winds at 3 MPH (3 knots; 1.5 m/s)
Visibility: 6 or more miles 10+ km)
Clouds: clear skies
Weather: no significant weather forecast for this period
Text: FM201600 11006KT P6SM SKC
Forecast period: 1600 to 1800 UTC 20 November 2018
Forecast type: FROM: standard forecast or significant change
Winds: from the ESE (110 degrees) at 7 MPH (6 knots; 3.1 m/s)
Visibility: 6 or more miles 10+ km)
Clouds: clear skies
Weather: no significant weather forecast for this period
Text: FM201800 15007KT P6SM SKC
Forecast period: 1800 to 2200 UTC 20 November 2018
Forecast type: FROM: standard forecast or significant change
Winds: from the SSE (150 degrees) at 8 MPH (7 knots; 3.6 m/s)
Visibility: 6 or more miles 10+ km)
Clouds: clear skies
Weather: no significant weather forecast for this period
Text: FM202200 22009KT P6SM SCT250
Forecast period: 2200 UTC 20 November 2018 to 0300 UTC 21 November 2018
Forecast type: FROM: standard forecast or significant change
Winds: from the SW (220 degrees) at 10 MPH (9 knots; 4.6 m/s)
Visibility: 6 or more miles 10+ km)
Ceiling: at least 12,000 feet AGL
Clouds: scattered clouds at 25000 feet AGL
Weather: no significant weather forecast for this period
Text: FM210300 VRB03KT P6SM BKN200
Forecast period: 0300 to 0800 UTC 21 November 2018
Forecast type: FROM: standard forecast or significant change
Winds: variable direction winds at 3 MPH (3 knots; 1.5 m/s)
Visibility: 6 or more miles 10+ km)
Ceiling: 20000 feet AGL
Clouds: broken clouds at 20000 feet AGL
Weather: no significant weather forecast for this period
Text: FM210800 09006KT P6SM BKN120
Forecast period: 0800 to 1200 UTC 21 November 2018
Forecast type: FROM: standard forecast or significant change
Winds: from the E (90 degrees) at 7 MPH (6 knots; 3.1 m/s)
Visibility: 6 or more miles 10+ km)
Ceiling: 12000 feet AGL
Clouds: broken clouds at 12000 feet AGL
Weather: no significant weather forecast for this period